sensor_id;sensor_type;location;lat;lon;timestamp;temperature;humidity
4052;DHT22;2040;50.924;11.604;2023-03-05T00:01:05;2.20;99.90
4052;DHT22;2040;50.924;11.604;2023-03-05T00:03:31;2.30;99.90
4052;DHT22;2040;50.924;11.604;2023-03-05T00:05:56;2.20;99.90
4052;DHT22;2040;50.924;11.604;2023-03-05T00:08:22;2.20;99.90
4052;DHT22;2040;50.924;11.604;2023-03-05T00:10:55;2.30;99.90
4052;DHT22;2040;50.924;11.604;2023-03-05T00:13:21;2.20;99.90
4052;DHT22;2040;50.924;11.604;2023-03-05T00:15:46;2.10;99.90
4052;DHT22;2040;50.924;11.604;2023-03-05T00:18:12;2.10;99.90
4052;DHT22;2040;50.924;11.604;2023-03-05T00:20:37;2.10;99.90
4052;DHT22;2040;50.924;11.604;2023-03-05T00:23:03;2.00;99.90
4052;DHT22;2040;50.924;11.604;2023-03-05T00:25:28;2.00;99.90
4052;DHT22;2040;50.924;11.604;2023-03-05T00:27:54;2.00;99.90
4052;DHT22;2040;50.924;11.604;2023-03-05T00:30:19;2.10;99.90
4052;DHT22;2040;50.924;11.604;2023-03-05T00:32:45;2.00;99.90
4052;DHT22;2040;50.924;11.604;2023-03-05T00:35:11;1.90;99.90
4052;DHT22;2040;50.924;11.604;2023-03-05T00:37:36;1.90;99.90
4052;DHT22;2040;50.924;11.604;2023-03-05T00:40:03;1.90;99.90
4052;DHT22;2040;50.924;11.604;2023-03-05T00:42:28;1.90;99.90
4052;DHT22;2040;50.924;11.604;2023-03-05T00:44:54;2.00;99.90
4052;DHT22;2040;50.924;11.604;2023-03-05T00:47:20;1.90;99.90
4052;DHT22;2040;50.924;11.604;2023-03-05T00:49:45;1.90;99.90
4052;DHT22;2040;50.924;11.604;2023-03-05T00:52:11;1.90;99.90
4052;DHT22;2040;50.924;11.604;2023-03-05T00:54:36;2.00;99.90
4052;DHT22;2040;50.924;11.604;2023-03-05T00:57:02;1.90;99.90
4052;DHT22;2040;50.924;11.604;2023-03-05T00:59:30;1.90;99.90
4052;DHT22;2040;50.924;11.604;2023-03-05T01:01:55;1.90;99.90
4052;DHT22;2040;50.924;11.604;2023-03-05T01:04:21;1.80;99.90
4052;DHT22;2040;50.924;11.604;2023-03-05T01:06:46;1.80;99.90
4052;DHT22;2040;50.924;11.604;2023-03-05T01:09:12;1.70;99.90
4052;DHT22;2040;50.924;11.604;2023-03-05T01:11:38;1.70;99.90
4052;DHT22;2040;50.924;11.604;2023-03-05T01:14:03;1.70;99.90
4052;DHT22;2040;50.924;11.604;2023-03-05T01:16:29;1.70;99.90
4052;DHT22;2040;50.924;11.604;2023-03-05T01:18:54;1.70;99.90
4052;DHT22;2040;50.924;11.604;2023-03-05T01:21:20;1.70;99.90
4052;DHT22;2040;50.924;11.604;2023-03-05T01:23:46;1.70;99.90
4052;DHT22;2040;50.924;11.604;2023-03-05T01:26:12;1.60;99.90
4052;DHT22;2040;50.924;11.604;2023-03-05T01:28:37;1.60;99.90
4052;DHT22;2040;50.924;11.604;2023-03-05T01:31:11;1.70;99.90
4052;DHT22;2040;50.924;11.604;2023-03-05T01:33:37;1.60;99.90
4052;DHT22;2040;50.924;11.604;2023-03-05T01:36:08;1.70;99.90
4052;DHT22;2040;50.924;11.604;2023-03-05T01:38:36;1.60;99.90
4052;DHT22;2040;50.924;11.604;2023-03-05T01:41:02;1.60;99.90
4052;DHT22;2040;50.924;11.604;2023-03-05T01:43:29;1.60;99.90
4052;DHT22;2040;50.924;11.604;2023-03-05T01:46:27;1.60;99.90
4052;DHT22;2040;50.924;11.604;2023-03-05T01:49:16;1.60;99.90
4052;DHT22;2040;50.924;11.604;2023-03-05T01:52:04;1.60;99.90
4052;DHT22;2040;50.924;11.604;2023-03-05T01:54:38;1.60;99.90
4052;DHT22;2040;50.924;11.604;2023-03-05T01:57:13;1.60;99.90
4052;DHT22;2040;50.924;11.604;2023-03-05T01:59:41;1.60;99.90
4052;DHT22;2040;50.924;11.604;2023-03-05T02:02:07;1.60;99.90
4052;DHT22;2040;50.924;11.604;2023-03-05T02:04:53;1.60;99.90
4052;DHT22;2040;50.924;11.604;2023-03-05T02:07:20;1.70;99.90
4052;DHT22;2040;50.924;11.604;2023-03-05T02:09:46;1.60;99.90
4052;DHT22;2040;50.924;11.604;2023-03-05T02:12:12;1.60;99.90
4052;DHT22;2040;50.924;11.604;2023-03-05T02:14:40;1.70;99.90
4052;DHT22;2040;50.924;11.604;2023-03-05T02:17:09;1.70;99.90
4052;DHT22;2040;50.924;11.604;2023-03-05T02:19:55;1.60;99.90
4052;DHT22;2040;50.924;11.604;2023-03-05T02:22:22;1.60;99.90
4052;DHT22;2040;50.924;11.604;2023-03-05T02:24:49;1.60;99.90
4052;DHT22;2040;50.924;11.604;2023-03-05T02:27:15;1.60;99.90
4052;DHT22;2040;50.924;11.604;2023-03-05T02:29:43;1.60;99.90
4052;DHT22;2040;50.924;11.604;2023-03-05T02:32:09;1.50;99.90
4052;DHT22;2040;50.924;11.604;2023-03-05T02:34:35;1.60;99.90
4052;DHT22;2040;50.924;11.604;2023-03-05T02:37:02;1.60;99.90
4052;DHT22;2040;50.924;11.604;2023-03-05T02:39:29;1.50;99.90
4052;DHT22;2040;50.924;11.604;2023-03-05T02:41:55;1.50;99.90
4052;DHT22;2040;50.924;11.604;2023-03-05T02:44:21;1.50;99.90
4052;DHT22;2040;50.924;11.604;2023-03-05T02:46:47;1.50;99.90
4052;DHT22;2040;50.924;11.604;2023-03-05T02:49:13;1.50;99.90
4052;DHT22;2040;50.924;11.604;2023-03-05T02:51:38;1.50;99.90
4052;DHT22;2040;50.924;11.604;2023-03-05T02:54:04;1.40;99.90
4052;DHT22;2040;50.924;11.604;2023-03-05T02:56:30;1.40;99.90
4052;DHT22;2040;50.924;11.604;2023-03-05T02:58:56;1.40;99.90
4052;DHT22;2040;50.924;11.604;2023-03-05T03:01:21;1.40;99.90
4052;DHT22;2040;50.924;11.604;2023-03-05T03:03:47;1.50;99.90
4052;DHT22;2040;50.924;11.604;2023-03-05T03:06:12;1.50;99.90
4052;DHT22;2040;50.924;11.604;2023-03-05T03:08:38;1.50;99.90
4052;DHT22;2040;50.924;11.604;2023-03-05T03:11:08;1.50;99.90
4052;DHT22;2040;50.924;11.604;2023-03-05T03:13:35;1.50;99.90
4052;DHT22;2040;50.924;11.604;2023-03-05T03:16:12;1.40;99.90
4052;DHT22;2040;50.924;11.604;2023-03-05T03:18:38;1.50;99.90
4052;DHT22;2040;50.924;11.604;2023-03-05T03:21:04;1.50;99.90
4052;DHT22;2040;50.924;11.604;2023-03-05T03:23:30;1.50;99.90
4052;DHT22;2040;50.924;11.604;2023-03-05T03:25:56;1.50;99.90
4052;DHT22;2040;50.924;11.604;2023-03-05T03:28:22;1.50;99.90
4052;DHT22;2040;50.924;11.604;2023-03-05T03:30:47;1.50;99.90
4052;DHT22;2040;50.924;11.604;2023-03-05T03:33:13;1.40;99.90
4052;DHT22;2040;50.924;11.604;2023-03-05T03:35:38;1.40;99.90
4052;DHT22;2040;50.924;11.604;2023-03-05T03:38:04;1.50;99.90
4052;DHT22;2040;50.924;11.604;2023-03-05T03:40:30;1.50;99.90
4052;DHT22;2040;50.924;11.604;2023-03-05T03:42:56;1.40;99.90
4052;DHT22;2040;50.924;11.604;2023-03-05T03:45:22;1.40;99.90
4052;DHT22;2040;50.924;11.604;2023-03-05T03:47:48;1.40;99.90
4052;DHT22;2040;50.924;11.604;2023-03-05T03:50:14;1.40;99.90
4052;DHT22;2040;50.924;11.604;2023-03-05T03:52:39;1.40;99.90
4052;DHT22;2040;50.924;11.604;2023-03-05T03:55:06;1.40;99.90
4052;DHT22;2040;50.924;11.604;2023-03-05T03:57:31;1.30;99.90
4052;DHT22;2040;50.924;11.604;2023-03-05T04:00:00;1.50;99.90
4052;DHT22;2040;50.924;11.604;2023-03-05T04:02:26;1.40;99.90
4052;DHT22;2040;50.924;11.604;2023-03-05T04:04:51;1.40;99.90
4052;DHT22;2040;50.924;11.604;2023-03-05T04:07:18;1.40;99.90
4052;DHT22;2040;50.924;11.604;2023-03-05T04:09:44;1.40;99.90
4052;DHT22;2040;50.924;11.604;2023-03-05T04:12:09;1.40;99.90
4052;DHT22;2040;50.924;11.604;2023-03-05T04:14:35;1.30;99.90
4052;DHT22;2040;50.924;11.604;2023-03-05T04:17:01;1.40;99.90
4052;DHT22;2040;50.924;11.604;2023-03-05T04:19:27;1.40;99.90
4052;DHT22;2040;50.924;11.604;2023-03-05T04:21:55;1.30;99.90
4052;DHT22;2040;50.924;11.604;2023-03-05T04:24:21;1.40;99.90
4052;DHT22;2040;50.924;11.604;2023-03-05T04:26:46;1.40;99.90
4052;DHT22;2040;50.924;11.604;2023-03-05T04:29:12;1.40;99.90
4052;DHT22;2040;50.924;11.604;2023-03-05T04:31:37;1.40;99.90
4052;DHT22;2040;50.924;11.604;2023-03-05T04:34:03;1.30;99.90
4052;DHT22;2040;50.924;11.604;2023-03-05T04:36:29;1.40;99.90
4052;DHT22;2040;50.924;11.604;2023-03-05T04:38:54;1.40;99.90
4052;DHT22;2040;50.924;11.604;2023-03-05T04:41:20;1.30;99.90
4052;DHT22;2040;50.924;11.604;2023-03-05T04:43:45;1.30;99.90
4052;DHT22;2040;50.924;11.604;2023-03-05T04:46:11;1.30;99.90
4052;DHT22;2040;50.924;11.604;2023-03-05T04:48:36;1.30;99.90
4052;DHT22;2040;50.924;11.604;2023-03-05T04:51:02;1.30;99.90
4052;DHT22;2040;50.924;11.604;2023-03-05T04:53:27;1.30;99.90
4052;DHT22;2040;50.924;11.604;2023-03-05T04:55:54;1.30;99.90
4052;DHT22;2040;50.924;11.604;2023-03-05T04:58:20;1.40;99.90
4052;DHT22;2040;50.924;11.604;2023-03-05T05:00:45;1.40;99.90
4052;DHT22;2040;50.924;11.604;2023-03-05T05:03:11;1.30;99.90
4052;DHT22;2040;50.924;11.604;2023-03-05T05:05:36;1.30;99.90
4052;DHT22;2040;50.924;11.604;2023-03-05T05:08:02;1.30;99.90
4052;DHT22;2040;50.924;11.604;2023-03-05T05:10:28;1.30;99.90
4052;DHT22;2040;50.924;11.604;2023-03-05T05:12:53;1.30;99.90
4052;DHT22;2040;50.924;11.604;2023-03-05T05:15:19;1.30;99.90
4052;DHT22;2040;50.924;11.604;2023-03-05T05:17:45;1.30;99.90
4052;DHT22;2040;50.924;11.604;2023-03-05T05:20:13;1.30;99.90
4052;DHT22;2040;50.924;11.604;2023-03-05T05:22:39;1.30;99.90
4052;DHT22;2040;50.924;11.604;2023-03-05T05:25:05;1.30;99.90
4052;DHT22;2040;50.924;11.604;2023-03-05T05:27:30;1.30;99.90
4052;DHT22;2040;50.924;11.604;2023-03-05T05:29:56;1.30;99.90
4052;DHT22;2040;50.924;11.604;2023-03-05T05:32:23;1.30;99.90
4052;DHT22;2040;50.924;11.604;2023-03-05T05:34:54;1.20;99.90
4052;DHT22;2040;50.924;11.604;2023-03-05T05:37:20;1.30;99.90
4052;DHT22;2040;50.924;11.604;2023-03-05T05:39:46;1.20;99.90
4052;DHT22;2040;50.924;11.604;2023-03-05T05:42:18;1.20;99.90
4052;DHT22;2040;50.924;11.604;2023-03-05T05:44:45;1.20;99.90
4052;DHT22;2040;50.924;11.604;2023-03-05T05:47:12;1.20;99.90
4052;DHT22;2040;50.924;11.604;2023-03-05T05:49:38;1.20;99.90
4052;DHT22;2040;50.924;11.604;2023-03-05T05:52:04;1.20;99.90
4052;DHT22;2040;50.924;11.604;2023-03-05T05:54:30;1.20;99.90
4052;DHT22;2040;50.924;11.604;2023-03-05T05:56:56;1.20;99.90
4052;DHT22;2040;50.924;11.604;2023-03-05T05:59:21;1.30;99.90
4052;DHT22;2040;50.924;11.604;2023-03-05T06:01:47;1.20;99.90
4052;DHT22;2040;50.924;11.604;2023-03-05T06:04:13;1.10;99.90
4052;DHT22;2040;50.924;11.604;2023-03-05T06:06:38;1.20;99.90
4052;DHT22;2040;50.924;11.604;2023-03-05T06:09:04;1.20;99.90
4052;DHT22;2040;50.924;11.604;2023-03-05T06:11:29;1.30;99.90
4052;DHT22;2040;50.924;11.604;2023-03-05T06:13:55;1.30;99.90
4052;DHT22;2040;50.924;11.604;2023-03-05T06:16:23;1.30;99.90
4052;DHT22;2040;50.924;11.604;2023-03-05T06:18:50;1.30;99.90
4052;DHT22;2040;50.924;11.604;2023-03-05T06:21:17;1.30;99.90
4052;DHT22;2040;50.924;11.604;2023-03-05T06:23:44;1.30;99.90
4052;DHT22;2040;50.924;11.604;2023-03-05T06:26:12;1.40;99.90
4052;DHT22;2040;50.924;11.604;2023-03-05T06:28:39;1.40;99.90
4052;DHT22;2040;50.924;11.604;2023-03-05T06:31:09;1.40;99.90
4052;DHT22;2040;50.924;11.604;2023-03-05T06:33:35;1.40;99.90
4052;DHT22;2040;50.924;11.604;2023-03-05T06:36:08;1.50;99.90
4052;DHT22;2040;50.924;11.604;2023-03-05T06:38:34;1.50;99.90
4052;DHT22;2040;50.924;11.604;2023-03-05T06:41:05;1.50;99.90
4052;DHT22;2040;50.924;11.604;2023-03-05T06:43:31;1.50;99.90
4052;DHT22;2040;50.924;11.604;2023-03-05T06:46:05;1.50;99.90
4052;DHT22;2040;50.924;11.604;2023-03-05T06:48:31;1.60;99.90
4052;DHT22;2040;50.924;11.604;2023-03-05T06:50:56;1.60;99.90
4052;DHT22;2040;50.924;11.604;2023-03-05T06:53:23;1.70;99.90
4052;DHT22;2040;50.924;11.604;2023-03-05T06:55:49;1.70;99.90
4052;DHT22;2040;50.924;11.604;2023-03-05T06:58:15;1.70;99.90
4052;DHT22;2040;50.924;11.604;2023-03-05T07:00:42;1.80;99.90
4052;DHT22;2040;50.924;11.604;2023-03-05T07:03:07;1.80;99.90
4052;DHT22;2040;50.924;11.604;2023-03-05T07:05:33;1.80;99.90
4052;DHT22;2040;50.924;11.604;2023-03-05T07:08:02;1.80;99.90
4052;DHT22;2040;50.924;11.604;2023-03-05T07:10:28;1.90;99.90
4052;DHT22;2040;50.924;11.604;2023-03-05T07:12:54;1.80;99.90
4052;DHT22;2040;50.924;11.604;2023-03-05T07:15:19;1.80;99.90
4052;DHT22;2040;50.924;11.604;2023-03-05T07:17:45;1.80;99.90
4052;DHT22;2040;50.924;11.604;2023-03-05T07:20:11;1.80;99.90
4052;DHT22;2040;50.924;11.604;2023-03-05T07:22:37;1.80;99.90
4052;DHT22;2040;50.924;11.604;2023-03-05T07:25:03;1.80;99.90
4052;DHT22;2040;50.924;11.604;2023-03-05T07:27:29;1.80;99.90
4052;DHT22;2040;50.924;11.604;2023-03-05T07:29:54;1.80;99.90
4052;DHT22;2040;50.924;11.604;2023-03-05T07:32:20;1.80;99.90
4052;DHT22;2040;50.924;11.604;2023-03-05T07:34:46;1.80;99.90
4052;DHT22;2040;50.924;11.604;2023-03-05T07:37:12;1.80;99.90
4052;DHT22;2040;50.924;11.604;2023-03-05T07:39:38;1.80;99.90
4052;DHT22;2040;50.924;11.604;2023-03-05T07:42:04;1.80;99.90
4052;DHT22;2040;50.924;11.604;2023-03-05T07:44:29;1.90;99.90
4052;DHT22;2040;50.924;11.604;2023-03-05T07:46:55;1.90;99.90
4052;DHT22;2040;50.924;11.604;2023-03-05T07:49:20;1.90;99.90
4052;DHT22;2040;50.924;11.604;2023-03-05T07:51:48;2.00;99.90
4052;DHT22;2040;50.924;11.604;2023-03-05T07:54:13;2.00;99.90
4052;DHT22;2040;50.924;11.604;2023-03-05T07:56:39;2.00;99.90
4052;DHT22;2040;50.924;11.604;2023-03-05T07:59:10;2.00;99.90
4052;DHT22;2040;50.924;11.604;2023-03-05T08:01:37;2.00;99.90
4052;DHT22;2040;50.924;11.604;2023-03-05T08:04:04;2.00;99.90
4052;DHT22;2040;50.924;11.604;2023-03-05T08:06:30;2.10;99.90
4052;DHT22;2040;50.924;11.604;2023-03-05T08:08:56;2.20;99.90
4052;DHT22;2040;50.924;11.604;2023-03-05T08:11:23;2.30;99.90
4052;DHT22;2040;50.924;11.604;2023-03-05T08:13:49;2.30;99.90
4052;DHT22;2040;50.924;11.604;2023-03-05T08:16:17;2.30;99.90
4052;DHT22;2040;50.924;11.604;2023-03-05T08:18:43;2.40;99.90
4052;DHT22;2040;50.924;11.604;2023-03-05T08:21:23;2.30;99.90
4052;DHT22;2040;50.924;11.604;2023-03-05T08:23:51;2.40;99.90
4052;DHT22;2040;50.924;11.604;2023-03-05T08:26:20;2.40;99.90
4052;DHT22;2040;50.924;11.604;2023-03-05T08:28:46;2.40;99.90
4052;DHT22;2040;50.924;11.604;2023-03-05T08:31:13;2.40;99.90
4052;DHT22;2040;50.924;11.604;2023-03-05T08:33:40;2.50;99.90
4052;DHT22;2040;50.924;11.604;2023-03-05T08:36:06;2.60;99.90
4052;DHT22;2040;50.924;11.604;2023-03-05T08:38:32;2.70;99.90
4052;DHT22;2040;50.924;11.604;2023-03-05T08:40:58;2.70;99.90
4052;DHT22;2040;50.924;11.604;2023-03-05T08:43:24;2.70;99.90
4052;DHT22;2040;50.924;11.604;2023-03-05T08:45:49;2.70;99.90
4052;DHT22;2040;50.924;11.604;2023-03-05T08:48:16;2.60;99.90
4052;DHT22;2040;50.924;11.604;2023-03-05T08:50:41;2.60;99.90
4052;DHT22;2040;50.924;11.604;2023-03-05T08:53:07;2.60;99.90
4052;DHT22;2040;50.924;11.604;2023-03-05T08:55:33;2.60;99.90
4052;DHT22;2040;50.924;11.604;2023-03-05T08:57:58;2.60;99.90
4052;DHT22;2040;50.924;11.604;2023-03-05T09:00:27;2.70;99.90
4052;DHT22;2040;50.924;11.604;2023-03-05T09:02:52;2.70;99.90
4052;DHT22;2040;50.924;11.604;2023-03-05T09:05:18;2.70;99.90
4052;DHT22;2040;50.924;11.604;2023-03-05T09:07:44;2.70;99.90
4052;DHT22;2040;50.924;11.604;2023-03-05T09:10:10;2.70;99.90
4052;DHT22;2040;50.924;11.604;2023-03-05T09:12:38;2.60;99.90
4052;DHT22;2040;50.924;11.604;2023-03-05T09:15:05;2.60;99.90
4052;DHT22;2040;50.924;11.604;2023-03-05T09:17:33;2.60;99.90
4052;DHT22;2040;50.924;11.604;2023-03-05T09:19:59;2.60;99.90
4052;DHT22;2040;50.924;11.604;2023-03-05T09:22:25;2.70;99.90
4052;DHT22;2040;50.924;11.604;2023-03-05T09:24:50;2.70;99.90
4052;DHT22;2040;50.924;11.604;2023-03-05T09:27:16;2.80;99.90
4052;DHT22;2040;50.924;11.604;2023-03-05T09:29:41;2.80;99.90
4052;DHT22;2040;50.924;11.604;2023-03-05T09:32:08;2.90;99.90
4052;DHT22;2040;50.924;11.604;2023-03-05T09:34:35;2.90;99.90
4052;DHT22;2040;50.924;11.604;2023-03-05T09:37:01;3.00;99.90
4052;DHT22;2040;50.924;11.604;2023-03-05T09:39:26;3.10;99.90
4052;DHT22;2040;50.924;11.604;2023-03-05T09:45:19;3.30;99.90
4052;DHT22;2040;50.924;11.604;2023-03-05T09:47:54;3.10;99.90
4052;DHT22;2040;50.924;11.604;2023-03-05T09:50:39;3.20;99.90
4052;DHT22;2040;50.924;11.604;2023-03-05T09:56:00;3.20;99.90
4052;DHT22;2040;50.924;11.604;2023-03-05T09:58:33;3.20;99.90
4052;DHT22;2040;50.924;11.604;2023-03-05T10:06:34;3.20;99.90
4052;DHT22;2040;50.924;11.604;2023-03-05T10:09:16;3.30;99.90
4052;DHT22;2040;50.924;11.604;2023-03-05T10:11:56;3.40;99.90
4052;DHT22;2040;50.924;11.604;2023-03-05T10:14:34;3.30;99.90
4052;DHT22;2040;50.924;11.604;2023-03-05T10:22:23;3.60;99.90
4052;DHT22;2040;50.924;11.604;2023-03-05T10:25:02;3.70;99.90
4052;DHT22;2040;50.924;11.604;2023-03-05T10:27:55;3.70;99.90
4052;DHT22;2040;50.924;11.604;2023-03-05T10:30:52;3.80;99.90
4052;DHT22;2040;50.924;11.604;2023-03-05T10:33:34;4.00;99.90
4052;DHT22;2040;50.924;11.604;2023-03-05T10:38:43;4.00;99.90
4052;DHT22;2040;50.924;11.604;2023-03-05T10:41:15;4.00;99.90
4052;DHT22;2040;50.924;11.604;2023-03-05T10:43:54;4.10;99.90
4052;DHT22;2040;50.924;11.604;2023-03-05T10:46:30;4.30;99.90
4052;DHT22;2040;50.924;11.604;2023-03-05T10:49:16;4.40;99.90
4052;DHT22;2040;50.924;11.604;2023-03-05T10:54:32;4.60;99.90
4052;DHT22;2040;50.924;11.604;2023-03-05T10:59:36;4.70;99.90
4052;DHT22;2040;50.924;11.604;2023-03-05T11:02:06;4.80;99.90
4052;DHT22;2040;50.924;11.604;2023-03-05T11:04:38;4.60;99.90
4052;DHT22;2040;50.924;11.604;2023-03-05T11:09:44;4.70;99.90
4052;DHT22;2040;50.924;11.604;2023-03-05T11:12:36;4.60;99.90
4052;DHT22;2040;50.924;11.604;2023-03-05T11:15:22;4.60;99.90
4052;DHT22;2040;50.924;11.604;2023-03-05T11:18:06;4.70;99.90
4052;DHT22;2040;50.924;11.604;2023-03-05T11:20:34;4.70;99.90
4052;DHT22;2040;50.924;11.604;2023-03-05T11:23:04;4.70;99.90
4052;DHT22;2040;50.924;11.604;2023-03-05T11:25:32;4.60;99.90
4052;DHT22;2040;50.924;11.604;2023-03-05T11:27:59;4.50;99.90
4052;DHT22;2040;50.924;11.604;2023-03-05T11:30:30;4.40;99.90
4052;DHT22;2040;50.924;11.604;2023-03-05T11:33:19;4.30;99.90
4052;DHT22;2040;50.924;11.604;2023-03-05T11:35:48;4.20;99.90
4052;DHT22;2040;50.924;11.604;2023-03-05T11:38:20;4.30;99.90
4052;DHT22;2040;50.924;11.604;2023-03-05T11:40:49;4.30;99.90
4052;DHT22;2040;50.924;11.604;2023-03-05T11:43:19;4.30;99.90
4052;DHT22;2040;50.924;11.604;2023-03-05T11:45:49;4.20;99.90
4052;DHT22;2040;50.924;11.604;2023-03-05T11:48:20;4.00;99.90
4052;DHT22;2040;50.924;11.604;2023-03-05T11:50:53;3.90;99.90
4052;DHT22;2040;50.924;11.604;2023-03-05T11:53:34;3.90;99.90
4052;DHT22;2040;50.924;11.604;2023-03-05T11:56:18;3.80;99.90
4052;DHT22;2040;50.924;11.604;2023-03-05T11:58:51;3.90;99.90
4052;DHT22;2040;50.924;11.604;2023-03-05T12:01:28;4.10;99.90
4052;DHT22;2040;50.924;11.604;2023-03-05T12:03:55;4.00;99.90
4052;DHT22;2040;50.924;11.604;2023-03-05T12:06:39;4.20;99.90
4052;DHT22;2040;50.924;11.604;2023-03-05T12:09:35;4.20;99.90
4052;DHT22;2040;50.924;11.604;2023-03-05T12:14:50;4.10;99.90
4052;DHT22;2040;50.924;11.604;2023-03-05T12:17:24;4.10;99.90
4052;DHT22;2040;50.924;11.604;2023-03-05T12:22:37;3.90;99.90
4052;DHT22;2040;50.924;11.604;2023-03-05T12:27:51;3.80;99.90
4052;DHT22;2040;50.924;11.604;2023-03-05T12:33:39;3.90;99.90
4052;DHT22;2040;50.924;11.604;2023-03-05T12:38:56;3.80;99.90
4052;DHT22;2040;50.924;11.604;2023-03-05T12:51:46;3.50;99.90
4052;DHT22;2040;50.924;11.604;2023-03-05T12:56:55;3.40;99.90
4052;DHT22;2040;50.924;11.604;2023-03-05T12:59:27;3.30;99.90
4052;DHT22;2040;50.924;11.604;2023-03-05T13:02:02;3.20;99.90
4052;DHT22;2040;50.924;11.604;2023-03-05T13:04:32;3.10;99.90
4052;DHT22;2040;50.924;11.604;2023-03-05T13:07:04;3.10;99.90
4052;DHT22;2040;50.924;11.604;2023-03-05T13:09:31;3.10;99.90
4052;DHT22;2040;50.924;11.604;2023-03-05T13:12:00;3.10;99.90
4052;DHT22;2040;50.924;11.604;2023-03-05T13:14:34;3.20;99.90
4052;DHT22;2040;50.924;11.604;2023-03-05T13:17:01;3.20;99.90
4052;DHT22;2040;50.924;11.604;2023-03-05T13:19:28;3.20;99.90
4052;DHT22;2040;50.924;11.604;2023-03-05T13:22:02;3.30;99.90
4052;DHT22;2040;50.924;11.604;2023-03-05T13:24:29;3.30;99.90
4052;DHT22;2040;50.924;11.604;2023-03-05T13:26:55;3.30;99.90
4052;DHT22;2040;50.924;11.604;2023-03-05T13:29:23;3.50;99.90
4052;DHT22;2040;50.924;11.604;2023-03-05T13:31:59;3.50;99.90
4052;DHT22;2040;50.924;11.604;2023-03-05T13:34:31;3.40;99.90
4052;DHT22;2040;50.924;11.604;2023-03-05T13:37:01;3.30;99.90
4052;DHT22;2040;50.924;11.604;2023-03-05T13:39:31;3.40;99.90
4052;DHT22;2040;50.924;11.604;2023-03-05T13:42:06;3.40;99.90
4052;DHT22;2040;50.924;11.604;2023-03-05T13:44:33;3.70;99.90
4052;DHT22;2040;50.924;11.604;2023-03-05T13:49:38;3.80;99.90
4052;DHT22;2040;50.924;11.604;2023-03-05T13:52:03;3.80;99.90
4052;DHT22;2040;50.924;11.604;2023-03-05T13:54:30;3.70;99.90
4052;DHT22;2040;50.924;11.604;2023-03-05T13:57:00;3.60;99.90
4052;DHT22;2040;50.924;11.604;2023-03-05T13:59:28;3.60;99.90
4052;DHT22;2040;50.924;11.604;2023-03-05T14:01:58;3.70;99.90
4052;DHT22;2040;50.924;11.604;2023-03-05T14:04:27;3.80;99.90
4052;DHT22;2040;50.924;11.604;2023-03-05T14:07:05;3.70;99.90
4052;DHT22;2040;50.924;11.604;2023-03-05T14:12:26;3.70;99.90
4052;DHT22;2040;50.924;11.604;2023-03-05T14:14:55;3.70;99.90
4052;DHT22;2040;50.924;11.604;2023-03-05T14:22:36;3.70;99.90
4052;DHT22;2040;50.924;11.604;2023-03-05T14:25:06;3.70;99.90
4052;DHT22;2040;50.924;11.604;2023-03-05T14:27:49;3.70;99.90
4052;DHT22;2040;50.924;11.604;2023-03-05T14:30:16;3.80;99.90
4052;DHT22;2040;50.924;11.604;2023-03-05T14:32:44;3.80;99.90
4052;DHT22;2040;50.924;11.604;2023-03-05T14:35:18;3.80;99.90
4052;DHT22;2040;50.924;11.604;2023-03-05T14:37:46;3.70;99.90
4052;DHT22;2040;50.924;11.604;2023-03-05T14:42:55;3.70;99.90
4052;DHT22;2040;50.924;11.604;2023-03-05T14:45:32;3.70;99.90
4052;DHT22;2040;50.924;11.604;2023-03-05T14:48:00;3.60;99.90
4052;DHT22;2040;50.924;11.604;2023-03-05T14:50:32;3.60;99.90
4052;DHT22;2040;50.924;11.604;2023-03-05T14:53:00;3.50;99.90
4052;DHT22;2040;50.924;11.604;2023-03-05T14:55:29;3.60;99.90
4052;DHT22;2040;50.924;11.604;2023-03-05T14:58:06;3.60;99.90
4052;DHT22;2040;50.924;11.604;2023-03-05T15:00:34;3.70;99.90
4052;DHT22;2040;50.924;11.604;2023-03-05T15:03:00;3.60;99.90
4052;DHT22;2040;50.924;11.604;2023-03-05T15:05:25;3.60;99.90
4052;DHT22;2040;50.924;11.604;2023-03-05T15:07:51;3.70;99.90
4052;DHT22;2040;50.924;11.604;2023-03-05T15:10:21;3.60;99.90
4052;DHT22;2040;50.924;11.604;2023-03-05T15:12:47;3.50;99.90
4052;DHT22;2040;50.924;11.604;2023-03-05T15:15:16;3.50;99.90
4052;DHT22;2040;50.924;11.604;2023-03-05T15:17:43;3.50;99.90
4052;DHT22;2040;50.924;11.604;2023-03-05T15:20:15;3.50;99.90
4052;DHT22;2040;50.924;11.604;2023-03-05T15:22:41;3.50;99.90
4052;DHT22;2040;50.924;11.604;2023-03-05T15:25:07;3.50;99.90
4052;DHT22;2040;50.924;11.604;2023-03-05T15:27:32;3.50;99.90
4052;DHT22;2040;50.924;11.604;2023-03-05T15:29:58;3.50;99.90
4052;DHT22;2040;50.924;11.604;2023-03-05T15:32:28;3.40;99.90
4052;DHT22;2040;50.924;11.604;2023-03-05T15:34:55;3.50;99.90
4052;DHT22;2040;50.924;11.604;2023-03-05T15:37:21;3.50;99.90
4052;DHT22;2040;50.924;11.604;2023-03-05T15:39:47;3.40;99.90
4052;DHT22;2040;50.924;11.604;2023-03-05T15:42:13;3.40;99.90
4052;DHT22;2040;50.924;11.604;2023-03-05T15:44:38;3.40;99.90
4052;DHT22;2040;50.924;11.604;2023-03-05T15:47:05;3.30;99.90
4052;DHT22;2040;50.924;11.604;2023-03-05T15:49:31;3.30;99.90
4052;DHT22;2040;50.924;11.604;2023-03-05T15:51:57;3.40;99.90
4052;DHT22;2040;50.924;11.604;2023-03-05T15:54:23;3.30;99.90
4052;DHT22;2040;50.924;11.604;2023-03-05T15:56:49;3.30;99.90
4052;DHT22;2040;50.924;11.604;2023-03-05T15:59:14;3.30;99.90
4052;DHT22;2040;50.924;11.604;2023-03-05T16:01:46;3.30;99.90
4052;DHT22;2040;50.924;11.604;2023-03-05T16:04:13;3.30;99.90
4052;DHT22;2040;50.924;11.604;2023-03-05T16:06:39;3.30;99.90
4052;DHT22;2040;50.924;11.604;2023-03-05T16:09:04;3.40;99.90
4052;DHT22;2040;50.924;11.604;2023-03-05T16:11:32;3.40;99.90
4052;DHT22;2040;50.924;11.604;2023-03-05T16:14:03;3.30;99.90
4052;DHT22;2040;50.924;11.604;2023-03-05T16:16:30;3.30;99.90
4052;DHT22;2040;50.924;11.604;2023-03-05T16:18:57;3.40;99.90
4052;DHT22;2040;50.924;11.604;2023-03-05T16:21:22;3.40;99.90
4052;DHT22;2040;50.924;11.604;2023-03-05T16:23:48;3.30;99.90
4052;DHT22;2040;50.924;11.604;2023-03-05T16:26:14;3.30;99.90
4052;DHT22;2040;50.924;11.604;2023-03-05T16:28:40;3.30;99.90
4052;DHT22;2040;50.924;11.604;2023-03-05T16:31:05;3.20;99.90
4052;DHT22;2040;50.924;11.604;2023-03-05T16:33:31;3.20;99.90
4052;DHT22;2040;50.924;11.604;2023-03-05T16:38:55;3.10;99.90
4052;DHT22;2040;50.924;11.604;2023-03-05T16:41:23;3.10;99.90
4052;DHT22;2040;50.924;11.604;2023-03-05T16:44:07;3.10;99.90
4052;DHT22;2040;50.924;11.604;2023-03-05T16:46:33;3.10;99.90
4052;DHT22;2040;50.924;11.604;2023-03-05T16:48:59;3.10;99.90
4052;DHT22;2040;50.924;11.604;2023-03-05T16:51:25;3.10;99.90
4052;DHT22;2040;50.924;11.604;2023-03-05T16:53:51;3.00;99.90
4052;DHT22;2040;50.924;11.604;2023-03-05T16:56:17;2.90;99.90
4052;DHT22;2040;50.924;11.604;2023-03-05T16:58:43;2.90;99.90
4052;DHT22;2040;50.924;11.604;2023-03-05T17:01:15;2.90;99.90
4052;DHT22;2040;50.924;11.604;2023-03-05T17:03:41;2.90;99.90
4052;DHT22;2040;50.924;11.604;2023-03-05T17:06:16;2.80;99.90
4052;DHT22;2040;50.924;11.604;2023-03-05T17:08:44;2.80;99.90
4052;DHT22;2040;50.924;11.604;2023-03-05T17:11:10;2.70;99.90
4052;DHT22;2040;50.924;11.604;2023-03-05T17:13:36;2.70;99.90
4052;DHT22;2040;50.924;11.604;2023-03-05T17:16:02;2.60;99.90
4052;DHT22;2040;50.924;11.604;2023-03-05T17:18:28;2.70;99.90
4052;DHT22;2040;50.924;11.604;2023-03-05T17:20:54;2.60;99.90